EW9768 Weather Reports


time (UTC)temp
C
wind
direction
speed
KPH
gust
KPH
rain 1hr
cm
rain 24hr
cm
rain mn
cm
humidity
%
barometer
mb
20200229065019 15 0.0 1.6 0.00 0.00 0.00 62 1016.9
20200229064019 15 0.0 0.0 0.00 0.00 0.00 61 1016.8
20200229063019 15 0.0 1.6 0.00 0.00 0.00 59 1017.0
20200229062019 16 0.0 1.6 0.00 0.00 0.00 57 1017.1
20200229061019 16 0.0 0.0 0.00 0.00 0.00 56 1016.9
20200229060019 16 0.0 0.0 0.00 0.00 0.00 56 1016.9
20200229055019 16 0.0 0.0 0.00 0.00 0.00 56 1017.1
20200229054018 16 0.0 0.0 0.00 0.00 0.00 54 1017.2
20200229053017 16 0.0 1.6 0.00 0.00 0.00 54 1017.2
20200229052018 16 0.0 0.0 0.00 0.00 0.00 54 1016.9
20200229051018 16 0.0 0.0 0.00 0.00 0.00 55 1016.7
20200229050018 16 0.0 0.0 0.00 0.00 0.00 56 1016.7
20200229045018 17 0.0 0.0 0.00 0.00 0.00 55 1016.7
20200229044020 17 0.0 0.0 0.00 0.00 0.00 54 1016.5
20200229043021 17 0.0 0.0 0.00 0.00 0.00 54 1016.5
20200229042018 17 0.0 0.0 0.00 0.00 0.00 53 1016.8
20200229041021 18 0.0 0.0 0.00 0.00 0.00 52 1016.8
20200229040019 18 0.0 0.0 0.00 0.00 0.00 52 1016.9
20200229035019 18 0.0 0.0 0.00 0.00 0.00 51 1016.8
20200229034020 18 0.0 0.0 0.00 0.00 0.00 50 1016.6
20200229033020 18 0.0 0.0 0.00 0.00 0.00 49 1016.7
20200229032018 19 0.0 0.0 0.00 0.00 0.00 48 1016.7
20200229031020 20 0.0 1.6 0.00 0.00 0.00 47 1016.7
20200229030020 20 0.0 0.0 0.00 0.00 0.00 46
20200229025022 20 225 1.6 3.2 0.00 0.00 0.00 45
20200229024020 20 0.0 1.6 0.00 0.00 0.00 45
20200229023020 21 0.0 1.6 0.00 0.00 0.00 44
20200229022020 21 0.0 0.0 0.00 0.00 0.00 43
20200229021020 21 225 1.6 4.8 0.00 0.00 0.00 43
20200229020020 22 0.0 3.2 0.00 0.00 0.00 41
20200229015020 22 202 1.6 3.2 0.00 0.00 0.00 38
20200229014020 23 0.0 1.6 0.00 0.00 0.00 35
20200229013019 24 202 1.6 3.2 0.00 0.00 0.00 30
20200229012019 25 225 1.6 4.8 0.00 0.00 0.00 29
20200229011020 24 225 3.2 6.4 0.00 0.00 0.00 29
20200229010021 25 225 1.6 3.2 0.00 0.00 0.00 29
20200229005020 25 225 1.6 4.8 0.00 0.00 0.00 28
20200229004020 25 0.0 3.2 0.00 0.00 0.00 26
20200229003021 26 0.0 3.2 0.00 0.00 0.00 24
20200229002020 26 0.0 6.4 0.00 0.00 0.00 23
20200229001020 26 225 1.6 6.4 0.00 0.00 0.00 23
20200229000019 26 270 1.6 4.8 0.00 0.00 0.00 23
20200228235020 26 270 1.6 6.4 0.00 0.00 0.00 23
20200228234020 26 270 3.2 8.0 0.00 0.00 0.00 23
20200228233020 27 270 1.6 8.0 0.00 0.00 0.00 23
20200228232020 27 292 1.6 4.8 0.00 0.00 0.00 24
20200228231019 27 292 3.2 8.0 0.00 0.00 0.00 24
20200228230020 27 292 3.2 8.0 0.00 0.00 0.00 23
20200228225020 28 315 3.2 12.9 0.00 0.00 0.00 22
20200228224020 28 247 1.6 4.8 0.00 0.00 0.00 15
20200228223020 28 247 1.6 9.7 0.00 0.00 0.00 15 1015.8
20200228222020 28 315 1.6 6.4 0.00 0.00 0.00 17 1016.1
20200228221020 28 270 1.6 8.0 0.00 0.00 0.00 17 1016.1
20200228220020 28 225 3.2 9.7 0.00 0.00 0.00 17 1016.2
20200228215021 28 292 1.6 8.0 0.00 0.00 0.00 16 1016.2
20200228214020 28 315 1.6 4.8 0.00 0.00 0.00 16 1016.2
20200228213020 28 315 3.2 6.4 0.00 0.00 0.00 16 1016.1
20200228212020 29 202 3.2 9.7 0.00 0.00 0.00 17 1016.3
20200228211020 30 0.0 3.2 0.00 0.00 0.00 16 1016.2
20200228210020 29 0.0 3.2 0.00 0.00 0.00 15 1016.2
20200228205019 29 157 1.6 4.8 0.00 0.00 0.00 15 1016.2
20200228204019 29 112 3.2 9.7 0.00 0.00 0.00 16 1016.2
20200228203019 30 0.0 1.6 0.00 0.00 0.00 17 1016.2
20200228202019 28 112 1.6 11.3 0.00 0.00 0.00 17 1016.4
20200228201019 28 157 3.2 6.4 0.00 0.00 0.00 17 1016.4
20200228200020 28 0.0 3.2 0.00 0.00 0.00 18 1016.6
20200228195020 28 90 1.6 4.8 0.00 0.00 0.00 19 1016.9
20200228194020 28 67 1.6 6.4 0.00 0.00 0.00 19 1017.0
20200228193021 27 135 1.6 3.2 0.00 0.00 0.00 19 1017.1
20200228192019 27 315 3.2 8.0 0.00 0.00 0.00 19 1017.4
20200228191020 27 0.0 3.2 0.00 0.00 0.00 19 1017.7
20200228190018 27 0.0 3.2 0.00 0.00 0.00 20 1017.9
20200228185019 26 0.0 3.2 0.00 0.00 0.00 19 1017.9
20200228184018 26 67 1.6 4.8 0.00 0.00 0.00 20 1018.2
20200228183019 25 45 1.6 4.8 0.00 0.00 0.00 21 1018.1
20200228182019 25 45 3.2 8.0 0.00 0.00 0.00 21 1018.1
20200228181020 24 67 1.6 3.2 0.00 0.00 0.00 22 1018.2
20200228180019 24 45 4.8 12.9 0.00 0.00 0.00 22 1018.3
20200228175019 23 45 3.2 8.0 0.00 0.00 0.00 24 1018.2
20200228174020 22 45 4.8 11.3 0.00 0.00 0.00 24 1018.2
20200228173019 22 67 3.2 8.0 0.00 0.00 0.00 25 1018.4
20200228172018 22 0.0 3.2 0.00 0.00 0.00 31 1018.3
20200228171019 21 45 1.6 6.4 0.00 0.00 0.00 35 1018.3
20200228170019 20 45 1.6 3.2 0.00 0.00 0.00 36 1018.5
20200228165019 19 0.0 1.6 0.00 0.00 0.00 39 1018.7
20200228164021 18 0.0 0.0 0.00 0.00 0.00 40 1018.9
20200228163019 17 0.0 0.0 0.00 0.00 0.00 41 1018.6
20200228162019 17 0.0 0.0 0.00 0.00 0.00 42 1018.5
20200228161022 16 45 3.2 6.4 0.00 0.00 0.00 43 1018.2
20200228160019 16 45 3.2 6.4 0.00 0.00 0.00 43 1018.0
20200228155020 15 0.0 3.2 0.00 0.00 0.00 44 1018.0
20200228154019 15 67 1.6 4.8 0.00 0.00 0.00 45 1017.8
20200228153019 14 45 1.6 6.4 0.00 0.00 0.00 48 1017.7
20200228152018 14 45 4.8 9.7 0.00 0.00 0.00 47 1017.6
20200228151019 14 0.0 1.6 0.00 0.00 0.00 46 1017.6
20200228150018 13 0.0 0.0 0.00 0.00 0.00 46 1017.6
20200228145018 -17 0.0 0.0 0.00 0.00 0.00
20200228144030 -17 0.0 0.0 0.00 0.00 0.00
20200228143518 -17 0.0 0.0 0.00 0.00 0.00
20200228142020 -17 0.0 0.0 0.00 0.00 0.00
20200228141042 -17 0.0 0.0 0.00 0.00 0.00
20200228140019 -17 0.0 0.0 0.00 0.00 0.00
20200228135053 -17 0.0 0.0 0.00 0.00 0.00
20200228134542 -17 0.0 0.0 0.00 0.00 0.00
20200228133519 -17 0.0 0.0 0.00 0.00 0.00
20200228132554 -17 0.0 0.0 0.00 0.00 0.00
20200228132042 -17 0.0 0.0 0.00 0.00 0.00
20200228131018 -17 0.0 0.0 0.00 0.00 0.00
20200228130048 -17 0.0 0.0 0.00 0.00 0.00
20200228125537 -17 0.0 0.0 0.00 0.00 0.00
20200228124518 -17 0.0 0.0 0.00 0.00 0.00
20200228123547 -17 0.0 0.0 0.00 0.00 0.00
20200228123037 -17 0.0 0.0 0.00 0.00 0.00
20200228122018 -17 0.0 0.0 0.00 0.00 0.00
20200228121026 -17 0.0 0.0 0.00 0.00 0.00
20200228120516 -17 0.0 0.0 0.00 0.00 0.00
20200228115518 -17 0.0 0.0 0.00 0.00 0.00
20200228114523 -17 0.0 0.0 0.00 0.00 0.00
20200228114014 -17 0.0 0.0 0.00 0.00 0.00
20200228113018 -17 0.0 0.0 0.00 0.00 0.00
20200228112025 -17 0.0 0.0 0.00 0.00 0.00
20200228111514 -17 0.0 0.0 0.00 0.00 0.00
20200228110518 -17 0.0 0.0 0.00 0.00 0.00
20200228105524 -17 0.0 0.0 0.00 0.00 0.00
20200228105014 -17 0.0 0.0 0.00 0.00 0.00
20200228104018 -17 0.0 0.0 0.00 0.00 0.00
20200228103052 -17 0.0 0.0 0.00 0.00 0.00
20200228102541 12 0.0 0.0 0.00 0.00 0.00 62 1015.9
20200228102018 12 0.0 0.0 0.00 0.00 0.00 62 1015.9
20200228101018 11 0.0 0.0 0.00 0.00 0.00 61 1015.8
20200228100018 12 0.0 1.6 0.00 0.00 0.00 61 1015.8
20200228095018 12 0.0 1.6 0.00 0.00 0.00 60 1015.8
20200228094018 13 0.0 0.0 0.00 0.00 0.00 59 1015.9
20200228093018 13 0.0 0.0 0.00 0.00 0.00 59 1015.8
20200228092018 13 0.0 3.2 0.00 0.00 0.00 59 1015.8
20200228091018 13 225 3.2 4.8 0.00 0.00 0.00 59 1015.9
20200228090017 13 0.0 1.6 0.00 0.00 0.00 60 1015.8
20200228085018 12 0.0 0.0 0.00 0.00 0.00 60 1016.0
20200228084018 12 0.0 0.0 0.00 0.00 0.00 60 1016.0
20200228083018 12 0.0 0.0 0.00 0.00 0.00 59 1016.2
20200228082018 12 0.0 0.0 0.00 0.00 0.00 59 1016.3
20200228081018 12 0.0 1.6 0.00 0.00 0.00 59 1016.4
20200228080017 13 202 3.2 8.0 0.00 0.00 0.00 57 1016.6
20200228075020 13 202 1.6 3.2 0.00 0.00 0.00 52 1016.7
20200228074020 14 0.0 1.6 0.00 0.00 0.00 53 1016.6
20200228073020 14 0.0 0.0 0.00 0.00 0.00 53 1016.8
20200228072020 14 0.0 1.6 0.00 0.00 0.00 53 1016.7
20200228071021 14 0.0 3.2 0.00 0.00 0.00 53 1016.6
20200228070020 14 22 1.6 6.4 0.00 0.00 0.00 53 1016.4